Time;durP1;ratioP1;P1;durP2;ratioP2;P2;SDS_P1;SDS_P2;PMS_P1;PMS_P2;Temp;Humidity;BMP_temperature;BMP_pressure;BME280_temperature;BME280_humidity;BME280_pressure;Samples;Min_cycle;Max_cycle;Signal;HPM_P1;HPM_P2
2022/03/20 00:00:26;;;;;;;;;;;;;;;;;;5093933;28;19911;-68
2022/03/20 00:02:52;;;;;;;;;;;;;;;;;;5092784;28;20340;-67
2022/03/20 00:05:18;;;;;;;;;;;;;;;;;;5092864;28;19904;-68
2022/03/20 00:07:46;;;;;;;;;;;;;;;;;;5093530;28;20330;-67
2022/03/20 00:10:12;;;;;;;;;;;;;;;;;;5092837;28;20382;-67
2022/03/20 00:12:39;;;;;;;;;;;;;;;;;;5094095;28;20249;-68
2022/03/20 00:15:04;;;;;;;;;;;;;;;;;;5093706;28;19904;-67
2022/03/20 00:17:30;;;;;;;;;;;;;;;;;;5093946;28;19908;-67
2022/03/20 00:19:56;;;;;;;;;;;;;;;;;;5092663;28;19904;-67
2022/03/20 00:22:22;;;;;;;;;;;;;;;;;;5093553;28;19911;-68
2022/03/20 00:24:48;;;;;;;;;;;;;;;;;;5093902;28;20394;-67
2022/03/20 00:27:14;;;;;;;;;;;;;;;;;;5093267;28;19998;-67
2022/03/20 00:29:40;;;;;;;;;;;;;;;;;;5093835;28;19904;-67
2022/03/20 00:32:06;;;;;;;;;;;;;;;;;;5094072;28;19911;-67
2022/03/20 00:34:33;;;;;;;;;;;;;;;;;;5093366;28;19904;-67
2022/03/20 00:36:59;;;;;;;;;;;;;;;;;;5093783;28;19996;-68
2022/03/20 00:39:25;;;;;;;;;;;;;;;;;;5093745;28;19908;-67
2022/03/20 00:41:51;;;;;;;;;;;;;;;;;;5093356;28;19910;-67
2022/03/20 00:44:17;;;;;;;;;;;;;;;;;;5094123;28;20253;-67
2022/03/20 00:46:43;;;;;;;;;;;;;;;;;;5093588;28;19912;-68
2022/03/20 00:49:09;;;;;;;;;;;;;;;;;;5095366;28;19904;-67
2022/03/20 00:51:35;;;;;;;;;;;;;;;;;;5097709;28;19958;-67
2022/03/20 00:54:01;;;;;;;;;;;;;;;;;;5097693;28;20337;-67
2022/03/20 00:56:27;;;;;;;;;;;;;;;;;;5097188;28;19964;-67
2022/03/20 00:58:53;;;;;;;;;;;;;;;;;;5098115;28;19911;-67
2022/03/20 01:01:19;;;;;;;;;;;;;;;;;;5098164;28;20312;-67
2022/03/20 01:03:45;;;;;;;;;;;;;;;;;;5097148;28;19904;-67
2022/03/20 01:06:11;;;;;;;;;;;;;;;;;;5097506;28;19963;-66
2022/03/20 01:08:37;;;;;;;;;;;;;;;;;;5097716;28;19904;-67
2022/03/20 01:11:03;;;;;;;;;;;;;;;;;;5097101;28;19995;-67
2022/03/20 01:13:29;;;;;;;;;;;;;;;;;;5097428;28;19939;-67
2022/03/20 01:15:55;;;;;;;;;;;;;;;;;;5097293;28;19950;-67
2022/03/20 01:18:21;;;;;;;;;;;;;;;;;;5096835;28;20318;-67
2022/03/20 01:20:47;;;;;;;;;;;;;;;;;;5097201;28;19998;-67
2022/03/20 01:23:13;;;;;;;;;;;;;;;;;;5095907;28;19940;-67
2022/03/20 01:25:40;;;;;;;;;;;;;;;;;;5095256;28;19914;-67
2022/03/20 01:28:06;;;;;;;;;;;;;;;;;;5097109;28;19904;-66
2022/03/20 01:30:32;;;;;;;;;;;;;;;;;;5096630;28;19912;-67
2022/03/20 01:32:58;;;;;;;;;;;;;;;;;;5097001;28;19904;-67
2022/03/20 01:35:24;;;;;;;;;;;;;;;;;;5095653;28;20321;-67
2022/03/20 01:37:50;;;;;;;;;;;;;;;;;;5096484;28;19904;-68
2022/03/20 01:40:16;;;;;;;;;;;;;;;;;;5096880;28;19903;-67
2022/03/20 01:42:43;;;;;;;;;;;;;;;;;;5096933;28;20370;-67
2022/03/20 01:45:09;;;;;;;;;;;;;;;;;;5096530;28;19904;-67
2022/03/20 01:47:35;;;;;;;;;;;;;;;;;;5096798;28;19962;-67
2022/03/20 01:50:01;;;;;;;;;;;;;;;;;;5096610;28;20288;-66
2022/03/20 01:52:27;;;;;;;;;;;;;;;;;;5096232;28;19904;-68
2022/03/20 01:54:53;;;;;;;;;;;;;;;;;;5096603;28;19911;-67
2022/03/20 01:57:20;;;;;;;;;;;;;;;;;;5095205;28;20427;-66
2022/03/20 01:59:46;;;;;;;;;;;;;;;;;;5095582;28;19943;-67
2022/03/20 02:02:12;;;;;;;;;;;;;;;;;;5095596;28;19904;-66
2022/03/20 02:04:39;;;;;;;;;;;;;;;;;;5096708;28;20359;-66
2022/03/20 02:07:06;;;;;;;;;;;;;;;;;;5095951;28;19912;-67
2022/03/20 02:09:32;;;;;;;;;;;;;;;;;;5096260;28;19916;-66
2022/03/20 02:11:58;;;;;;;;;;;;;;;;;;5094943;28;19904;-66
2022/03/20 02:14:24;;;;;;;;;;;;;;;;;;5095795;28;19908;-67
2022/03/20 02:16:50;;;;;;;;;;;;;;;;;;5096108;28;19926;-67
2022/03/20 02:19:16;;;;;;;;;;;;;;;;;;5096082;28;20000;-66
2022/03/20 02:21:42;;;;;;;;;;;;;;;;;;5095652;28;19947;-67
2022/03/20 02:24:08;;;;;;;;;;;;;;;;;;5096134;28;19911;-67
2022/03/20 02:26:34;;;;;;;;;;;;;;;;;;5095645;28;20280;-67
2022/03/20 02:29:02;;;;;;;;;;;;;;;;;;5095549;28;19911;-67
2022/03/20 02:31:28;;;;;;;;;;;;;;;;;;5095861;28;19904;-67
2022/03/20 02:33:54;;;;;;;;;;;;;;;;;;5094163;28;19908;-67
2022/03/20 02:36:20;;;;;;;;;;;;;;;;;;5095772;28;20024;-67
2022/03/20 02:38:46;;;;;;;;;;;;;;;;;;5094358;28;19904;-67
2022/03/20 02:41:15;;;;;;;;;;;;;;;;;;5095478;28;19943;-67
2022/03/20 02:43:41;;;;;;;;;;;;;;;;;;5095888;28;19957;-67
2022/03/20 02:46:08;;;;;;;;;;;;;;;;;;5094144;28;19964;-67
2022/03/20 02:48:34;;;;;;;;;;;;;;;;;;5095109;28;19908;-67
2022/03/20 02:51:00;;;;;;;;;;;;;;;;;;5095427;28;19927;-68
2022/03/20 02:53:26;;;;;;;;;;;;;;;;;;5094095;28;19912;-68
2022/03/20 02:55:53;;;;;;;;;;;;;;;;;;5095274;28;20375;-67
2022/03/20 02:58:19;;;;;;;;;;;;;;;;;;5094158;28;20314;-68
2022/03/20 03:00:45;;;;;;;;;;;;;;;;;;5094065;28;19911;-67
2022/03/20 03:03:11;;;;;;;;;;;;;;;;;;5093506;28;19911;-68
2022/03/20 03:05:37;;;;;;;;;;;;;;;;;;5093894;28;19912;-67
2022/03/20 03:10:56;;;;;;;;;;;;;;;;;;5093994;28;19967;-67
2022/03/20 03:13:22;;;;;;;;;;;;;;;;;;5095060;28;20356;-67
2022/03/20 03:15:48;;;;;;;;;;;;;;;;;;5095102;28;19904;-67
2022/03/20 03:18:14;;;;;;;;;;;;;;;;;;5093282;28;19948;-68
2022/03/20 03:20:40;;;;;;;;;;;;;;;;;;5095136;28;19910;-68
2022/03/20 03:23:06;;;;;;;;;;;;;;;;;;5093288;28;20364;-68
2022/03/20 03:25:35;;;;;;;;;;;;;;;;;;5094670;28;19904;-68
2022/03/20 03:28:01;;;;;;;;;;;;;;;;;;5093503;28;19919;-68
2022/03/20 03:30:27;;;;;;;;;;;;;;;;;;5094372;28;19904;-68
2022/03/20 03:32:53;;;;;;;;;;;;;;;;;;5093351;28;19990;-68
2022/03/20 03:38:04;;;;;;;;;;;;;;;;;;5094279;28;19961;-68
2022/03/20 03:40:30;;;;;;;;;;;;;;;;;;5094590;28;19908;-66
2022/03/20 03:42:56;;;;;;;;;;;;;;;;;;5093264;28;19912;-68
2022/03/20 03:45:23;;;;;;;;;;;;;;;;;;5094031;28;19957;-67
2022/03/20 03:47:49;;;;;;;;;;;;;;;;;;5094372;28;19966;-67
2022/03/20 03:50:15;;;;;;;;;;;;;;;;;;5093089;28;20302;-67
2022/03/20 03:52:41;;;;;;;;;;;;;;;;;;5094068;28;19910;-67
2022/03/20 03:55:07;;;;;;;;;;;;;;;;;;5094401;28;20224;-67
2022/03/20 03:57:32;;;;;;;;;;;;;;;;;;5094260;28;19904;-67
2022/03/20 03:59:58;;;;;;;;;;;;;;;;;;5092594;28;19957;-67
2022/03/20 04:02:24;;;;;;;;;;;;;;;;;;5094159;28;19903;-67
2022/03/20 04:04:50;;;;;;;;;;;;;;;;;;5092927;28;19904;-67
2022/03/20 04:07:20;;;;;;;;;;;;;;;;;;5092389;28;19919;-66
2022/03/20 04:09:46;;;;;;;;;;;;;;;;;;5092781;28;20007;-66
2022/03/20 04:12:13;;;;;;;;;;;;;;;;;;5092406;28;20340;-66
2022/03/20 04:14:39;;;;;;;;;;;;;;;;;;5094266;28;20308;-66
2022/03/20 04:17:06;;;;;;;;;;;;;;;;;;5092767;28;19904;-67
2022/03/20 04:19:33;;;;;;;;;;;;;;;;;;5093539;28;19948;-67
2022/03/20 04:21:59;;;;;;;;;;;;;;;;;;5093799;28;20331;-67
2022/03/20 04:24:25;;;;;;;;;;;;;;;;;;5093957;28;19904;-67
2022/03/20 04:26:50;;;;;;;;;;;;;;;;;;5093290;28;20293;-67
2022/03/20 04:29:20;;;;;;;;;;;;;;;;;;5092912;28;19904;-67
2022/03/20 04:31:46;;;;;;;;;;;;;;;;;;5092633;28;20011;-66
2022/03/20 04:34:12;;;;;;;;;;;;;;;;;;5093382;28;19932;-67
2022/03/20 04:36:38;;;;;;;;;;;;;;;;;;5093911;28;19991;-66
2022/03/20 04:39:04;;;;;;;;;;;;;;;;;;5092454;28;19943;-67
2022/03/20 04:41:30;;;;;;;;;;;;;;;;;;5093325;28;19916;-66
2022/03/20 04:43:56;;;;;;;;;;;;;;;;;;5093817;28;19904;-67
2022/03/20 04:46:22;;;;;;;;;;;;;;;;;;5093611;28;19968;-67
2022/03/20 04:59:47;;;;;;;;;;;;;;;;;;5093617;28;19911;-67
2022/03/20 05:02:13;;;;;;;;;;;;;;;;;;5093196;28;19905;-66
2022/03/20 05:04:39;;;;;;;;;;;;;;;;;;5092318;28;19911;-67
2022/03/20 05:07:05;;;;;;;;;;;;;;;;;;5092198;28;19916;-66
2022/03/20 05:15:00;;;;;;;;;;;;;;;;;;5093543;28;19949;-68
2022/03/20 05:17:26;;;;;;;;;;;;;;;;;;5091687;28;20003;-66
2022/03/20 05:19:52;;;;;;;;;;;;;;;;;;5093463;28;20279;-67
2022/03/20 05:22:18;;;;;;;;;;;;;;;;;;5093399;28;19912;-67
2022/03/20 05:24:44;;;;;;;;;;;;;;;;;;5092937;28;19930;-67
2022/03/20 05:27:10;;;;;;;;;;;;;;;;;;5093037;28;20057;-67
2022/03/20 05:29:38;;;;;;;;;;;;;;;;;;5092875;28;20339;-67
2022/03/20 05:32:04;;;;;;;;;;;;;;;;;;5092012;28;19908;-67
2022/03/20 05:34:32;;;;;;;;;;;;;;;;;;5095363;28;19911;-67
2022/03/20 05:36:58;;;;;;;;;;;;;;;;;;5096597;28;19947;-67
2022/03/20 05:39:24;;;;;;;;;;;;;;;;;;5097108;28;20326;-66
2022/03/20 05:41:51;;;;;;;;;;;;;;;;;;5097096;28;19904;-67
2022/03/20 05:44:17;;;;;;;;;;;;;;;;;;5096818;28;19913;-66
2022/03/20 05:46:44;;;;;;;;;;;;;;;;;;5096612;28;19938;-67
2022/03/20 05:49:10;;;;;;;;;;;;;;;;;;5095503;28;19984;-67
2022/03/20 05:51:37;;;;;;;;;;;;;;;;;;5094998;28;19929;-67
2022/03/20 05:54:03;;;;;;;;;;;;;;;;;;5095346;28;20387;-68
2022/03/20 05:59:13;;;;;;;;;;;;;;;;;;5096258;28;19966;-68
2022/03/20 06:01:39;;;;;;;;;;;;;;;;;;5096549;28;19904;-68
2022/03/20 06:04:06;;;;;;;;;;;;;;;;;;5096499;28;19904;-68
2022/03/20 06:06:32;;;;;;;;;;;;;;;;;;5094600;28;19912;-68
2022/03/20 06:08:57;;;;;;;;;;;;;;;;;;5095051;28;19995;-68
2022/03/20 06:11:23;;;;;;;;;;;;;;;;;;5095020;28;19954;-68
2022/03/20 06:13:49;;;;;;;;;;;;;;;;;;5095858;28;19904;-68
2022/03/20 06:16:16;;;;;;;;;;;;;;;;;;5096205;28;19998;-68
2022/03/20 06:18:42;;;;;;;;;;;;;;;;;;5095755;28;19904;-68
2022/03/20 06:21:09;;;;;;;;;;;;;;;;;;5094686;28;19904;-68
2022/03/20 06:23:35;;;;;;;;;;;;;;;;;;5096021;28;19904;-68
2022/03/20 06:26:01;;;;;;;;;;;;;;;;;;5095275;28;20545;-68
2022/03/20 06:28:27;;;;;;;;;;;;;;;;;;5095964;28;19911;-68
2022/03/20 06:30:53;;;;;;;;;;;;;;;;;;5095900;28;20349;-68
2022/03/20 06:33:19;;;;;;;;;;;;;;;;;;5095637;28;19958;-68
2022/03/20 06:35:45;;;;;;;;;;;;;;;;;;5095839;28;20311;-68
2022/03/20 06:38:11;;;;;;;;;;;;;;;;;;5096338;28;19904;-68
2022/03/20 06:40:37;;;;;;;;;;;;;;;;;;5094020;28;19911;-68
2022/03/20 06:43:03;;;;;;;;;;;;;;;;;;5094358;28;19950;-68
2022/03/20 06:45:29;;;;;;;;;;;;;;;;;;5095905;28;19904;-68
2022/03/20 06:47:55;;;;;;;;;;;;;;;;;;5093739;28;20089;-68
2022/03/20 06:50:21;;;;;;;;;;;;;;;;;;5094239;28;19904;-69
2022/03/20 06:52:47;;;;;;;;;;;;;;;;;;5094144;28;19942;-68
2022/03/20 06:55:13;;;;;;;;;;;;;;;;;;5095049;28;19904;-68
2022/03/20 06:57:40;;;;;;;;;;;;;;;;;;5095400;28;19904;-68
2022/03/20 07:00:06;;;;;;;;;;;;;;;;;;5093973;28;19904;-67
2022/03/20 07:02:32;;;;;;;;;;;;;;;;;;5094995;28;19911;-67
2022/03/20 07:05:00;;;;;;;;;;;;;;;;;;5095228;28;19904;-67
2022/03/20 07:07:26;;;;;;;;;;;;;;;;;;5095134;28;19918;-67
2022/03/20 07:09:52;;;;;;;;;;;;;;;;;;5093444;28;19991;-66
2022/03/20 07:12:18;;;;;;;;;;;;;;;;;;5093685;28;19911;-67
2022/03/20 07:14:44;;;;;;;;;;;;;;;;;;5093771;28;19960;-67
2022/03/20 07:17:10;;;;;;;;;;;;;;;;;;5094681;28;20321;-67
2022/03/20 07:19:37;;;;;;;;;;;;;;;;;;5093685;28;19946;-66
2022/03/20 07:22:03;;;;;;;;;;;;;;;;;;5093437;28;20245;-67
2022/03/20 07:24:29;;;;;;;;;;;;;;;;;;5094450;28;19912;-67
2022/03/20 07:29:39;;;;;;;;;;;;;;;;;;5094419;28;19910;-67
2022/03/20 07:32:06;;;;;;;;;;;;;;;;;;5094722;28;19903;-67
2022/03/20 07:34:32;;;;;;;;;;;;;;;;;;5094659;28;19904;-68
2022/03/20 07:36:58;;;;;;;;;;;;;;;;;;5094258;28;20347;-68
2022/03/20 07:39:24;;;;;;;;;;;;;;;;;;5094650;28;19915;-68
2022/03/20 07:41:50;;;;;;;;;;;;;;;;;;5094532;28;20280;-68
2022/03/20 07:44:16;;;;;;;;;;;;;;;;;;5094148;28;20378;-68
2022/03/20 07:46:43;;;;;;;;;;;;;;;;;;5093106;28;19908;-68
2022/03/20 07:49:09;;;;;;;;;;;;;;;;;;5093160;28;20267;-68
2022/03/20 07:51:35;;;;;;;;;;;;;;;;;;5094196;28;19904;-68
2022/03/20 07:54:01;;;;;;;;;;;;;;;;;;5094392;28;20015;-68
2022/03/20 07:56:28;;;;;;;;;;;;;;;;;;5092677;28;19904;-68
2022/03/20 07:58:55;;;;;;;;;;;;;;;;;;5093923;28;19912;-68
2022/03/20 08:01:21;;;;;;;;;;;;;;;;;;5094218;28;20302;-68
2022/03/20 08:03:47;;;;;;;;;;;;;;;;;;5094204;28;19965;-68
2022/03/20 08:06:15;;;;;;;;;;;;;;;;;;5093769;28;19969;-68
2022/03/20 08:08:42;;;;;;;;;;;;;;;;;;5094423;28;19911;-68
2022/03/20 08:11:08;;;;;;;;;;;;;;;;;;5094083;28;19904;-68
2022/03/20 08:13:34;;;;;;;;;;;;;;;;;;5093676;28;19953;-68
2022/03/20 08:16:04;;;;;;;;;;;;;;;;;;5092715;28;19911;-68
2022/03/20 08:18:31;;;;;;;;;;;;;;;;;;5093992;28;19908;-68
2022/03/20 08:20:57;;;;;;;;;;;;;;;;;;5092962;28;20241;-68
2022/03/20 08:23:23;;;;;;;;;;;;;;;;;;5094115;28;19904;-68
2022/03/20 08:25:49;;;;;;;;;;;;;;;;;;5092004;28;19931;-68
2022/03/20 08:28:15;;;;;;;;;;;;;;;;;;5093991;28;20375;-68
2022/03/20 08:30:41;;;;;;;;;;;;;;;;;;5094287;28;19912;-68
2022/03/20 08:33:07;;;;;;;;;;;;;;;;;;5092142;28;19910;-69
2022/03/20 08:35:33;;;;;;;;;;;;;;;;;;5093867;28;19991;-68
2022/03/20 08:37:59;;;;;;;;;;;;;;;;;;5092504;28;20352;-68
2022/03/20 08:40:25;;;;;;;;;;;;;;;;;;5093437;28;19904;-68
2022/03/20 08:42:54;;;;;;;;;;;;;;;;;;5094132;28;19911;-68
2022/03/20 08:45:20;;;;;;;;;;;;;;;;;;5093741;28;19904;-68
2022/03/20 08:47:46;;;;;;;;;;;;;;;;;;5093159;28;19912;-68
2022/03/20 08:50:13;;;;;;;;;;;;;;;;;;5093626;28;19946;-68
2022/03/20 08:52:39;;;;;;;;;;;;;;;;;;5093648;28;19904;-68
2022/03/20 08:55:10;;;;;;;;;;;;;;;;;;5093305;28;19911;-69
2022/03/20 08:57:36;;;;;;;;;;;;;;;;;;5094043;28;20000;-68
2022/03/20 09:00:02;;;;;;;;;;;;;;;;;;5093630;28;19958;-69
2022/03/20 09:02:28;;;;;;;;;;;;;;;;;;5093318;28;19905;-68
2022/03/20 09:04:54;;;;;;;;;;;;;;;;;;5092217;28;20383;-68
2022/03/20 09:07:20;;;;;;;;;;;;;;;;;;5093543;28;20011;-67
2022/03/20 09:09:46;;;;;;;;;;;;;;;;;;5095738;28;19904;-67
2022/03/20 09:12:12;;;;;;;;;;;;;;;;;;5097674;28;20249;-67
2022/03/20 09:14:38;;;;;;;;;;;;;;;;;;5097032;28;19939;-68
2022/03/20 09:19:49;;;;;;;;;;;;;;;;;;5097328;28;19911;-68
2022/03/20 09:22:16;;;;;;;;;;;;;;;;;;5096823;28;20002;-68
2022/03/20 09:24:42;;;;;;;;;;;;;;;;;;5097208;28;19904;-68
2022/03/20 09:27:08;;;;;;;;;;;;;;;;;;5096877;28;19916;-68
2022/03/20 09:29:34;;;;;;;;;;;;;;;;;;5096765;28;19913;-68
2022/03/20 09:32:00;;;;;;;;;;;;;;;;;;5095713;28;20013;-68
2022/03/20 09:34:26;;;;;;;;;;;;;;;;;;5097224;28;19911;-68
2022/03/20 09:36:52;;;;;;;;;;;;;;;;;;5096658;28;20360;-68
2022/03/20 09:39:18;;;;;;;;;;;;;;;;;;5095633;28;19911;-68
2022/03/20 09:41:45;;;;;;;;;;;;;;;;;;5096933;28;19908;-68
2022/03/20 09:44:11;;;;;;;;;;;;;;;;;;5096453;28;19904;-68
2022/03/20 09:46:37;;;;;;;;;;;;;;;;;;5096684;28;19935;-68
2022/03/20 09:49:05;;;;;;;;;;;;;;;;;;5097261;28;19915;-69
2022/03/20 09:51:32;;;;;;;;;;;;;;;;;;5095027;28;19907;-69
2022/03/20 09:53:58;;;;;;;;;;;;;;;;;;5096662;28;19957;-69
2022/03/20 09:56:24;;;;;;;;;;;;;;;;;;5096595;28;20367;-68
2022/03/20 09:58:50;;;;;;;;;;;;;;;;;;5094894;28;19944;-69
2022/03/20 10:01:16;;;;;;;;;;;;;;;;;;5096478;28;19957;-69
2022/03/20 10:03:42;;;;;;;;;;;;;;;;;;5096342;28;20307;-68
2022/03/20 10:06:09;;;;;;;;;;;;;;;;;;5096034;28;20036;-68
2022/03/20 10:08:35;;;;;;;;;;;;;;;;;;5095053;28;20253;-68
2022/03/20 10:11:01;;;;;;;;;;;;;;;;;;5096047;28;19911;-68
2022/03/20 10:13:27;;;;;;;;;;;;;;;;;;5094911;28;19958;-69
2022/03/20 10:15:53;;;;;;;;;;;;;;;;;;5096314;28;19904;-68
2022/03/20 10:18:20;;;;;;;;;;;;;;;;;;5095761;28;19904;-68
2022/03/20 10:20:49;;;;;;;;;;;;;;;;;;5094470;28;19949;-69
2022/03/20 10:23:15;;;;;;;;;;;;;;;;;;5096105;28;20375;-68
2022/03/20 10:25:41;;;;;;;;;;;;;;;;;;5094253;28;19974;-69
2022/03/20 10:28:07;;;;;;;;;;;;;;;;;;5095880;28;19919;-69
2022/03/20 10:30:33;;;;;;;;;;;;;;;;;;5095880;28;19904;-68
2022/03/20 10:33:01;;;;;;;;;;;;;;;;;;5095606;28;19999;-68
2022/03/20 10:35:27;;;;;;;;;;;;;;;;;;5094476;28;19911;-69
2022/03/20 10:38:33;;;;;;;;;;;;;;;;;;5112164;27;20466;-69
2022/03/20 10:41:00;;;;;;;;;;;;;;;;;;5111345;28;19908;-69
2022/03/20 10:43:26;;;;;;;;;;;;;;;;;;5111576;28;19911;-67
2022/03/20 10:46:14;;;;;;;;;;;;;;;;;;5111814;27;20912;-67
2022/03/20 10:48:40;;;;;;;;;;;;;;;;;;5111628;28;19914;-67
2022/03/20 10:53:40;;;;;;;;;;;;;;;;;;5111860;27;20473;-69
2022/03/20 10:58:20;;;;;;;118.72;109.15;;;;;;;;;;5112071;27;20795;-67
2022/03/20 11:00:47;;;;;;;11.52;4.25;;;;;;;;;;5110990;28;20437;-69
2022/03/20 11:04:46;;;;;;;;;;;;;;;;;;5111658;27;20835;-68
2022/03/20 11:07:16;;;;;;;;;;;;;;;;;;5112024;28;20273;-68
2022/03/20 11:09:42;;;;;;;;;;;;;;;;;;5112100;28;20310;-67
2022/03/20 11:12:08;;;;;;;;;;;;;;;;;;5110283;28;20444;-68
2022/03/20 11:14:34;;;;;;;;;;;;;;;;;;5109729;28;19912;-68
2022/03/20 11:17:01;;;;;;;;;;;;;;;;;;5111404;28;20372;-68
2022/03/20 11:19:28;;;;;;;;;;;;;;;;;;5111370;28;20407;-68
2022/03/20 11:24:55;;;;;;;22.17;16.95;;;;;;;;;;5071300;28;20502;-69
2022/03/20 11:27:22;;;;;;;;;;;;;;;;;;5069788;28;20027;-68
2022/03/20 11:30:05;;;;;;;741.30;663.47;;;;;;;;;;5111223;27;20505;-67
2022/03/20 11:32:31;;;;;;;689.42;615.70;;;;;;;;;;5111128;28;20058;-67
2022/03/20 11:34:58;;;;;;;694.92;586.78;;;;;;;;;;5111146;28;20024;-67
2022/03/20 11:37:40;;;;;;;993.17;784.92;;;;;;;;;;5110822;28;20016;-67
2022/03/20 11:40:21;;;;;;;930.43;752.23;;;;;;;;;;5111330;28;20048;-67
2022/03/20 11:42:51;;;;;;;916.33;766.85;;;;;;;;;;5109226;28;20264;-67
2022/03/20 11:47:08;;;;;;;839.13;693.22;;;;;;;;;;5111530;27;20397;-67
2022/03/20 11:49:34;;;;;;;871.65;696.92;;;;;;;;;;5100268;28;20060;-68
2022/03/20 11:52:13;;;;;;;931.10;766.03;;;;;;;;;;5111122;28;20027;-68
2022/03/20 11:54:39;;;;;;;;;;;;;;;;;;5110570;28;20383;-68
2022/03/20 11:57:25;;;;;;;581.60;397.53;;;;;;;;;;5109661;28;20386;-68
2022/03/20 11:59:52;;;;;;;635.10;520.28;;;;;;;;;;5110807;28;20104;-68
2022/03/20 12:03:15;;;;;;;687.75;593.42;;;;;;;;;;5111801;27;20820;-67
2022/03/20 12:11:43;;;;;;;553.20;429.60;;;;;;;;;;5109945;27;20573;-67
2022/03/20 12:14:37;;;;;;;250.05;184.95;;;;;;;;;;5110305;27;20458;-68
2022/03/20 12:17:24;;;;;;;;;;;;;;;;;;5111703;27;20769;-67
2022/03/20 12:20:46;;;;;;;;;;;;;;;;;;5111606;27;20396;-67
2022/03/20 12:23:33;;;;;;;187.20;169.05;;;;;;;;;;5111541;28;20503;-67
2022/03/20 12:25:59;;;;;;;;;;;;;;;;;;5111110;28;20379;-67
2022/03/20 12:28:24;;;;;;;;;;;;;;;;;;5110276;28;20275;-67
2022/03/20 12:34:06;;;;;;;;;;;;;;;;;;5091325;27;20362;-66
2022/03/20 12:36:32;;;;;;;;;;;;;;;;;;5091188;28;19915;-69
2022/03/20 12:42:36;;;;;;;598.03;289.10;;;;;;;;;;5071006;28;20431;-67
2022/03/20 12:46:21;;;;;;;;;;;;;;;;;;5111798;27;19922;-67
2022/03/20 12:53:12;;;;;;;;;;;;;;;;;;5111543;27;19922;-68
2022/03/20 12:55:38;;;;;;;;;;;;;;;;;;5110358;28;19912;-68
2022/03/20 12:58:04;;;;;;;;;;;;;;;;;;5111867;28;19995;-68
2022/03/20 13:00:30;;;;;;;;;;;;;;;;;;5111305;28;19966;-68
2022/03/20 13:02:57;;;;;;;;;;;;;;;;;;5111509;28;20399;-68
2022/03/20 13:05:23;;;;;;;;;;;;;;;;;;5111485;28;19908;-68
2022/03/20 13:08:24;;;;;;;;;;;;;;;;;;5111265;27;20560;-68
2022/03/20 13:10:50;;;;;;;;;;;;;;;;;;5111962;28;20374;-67
2022/03/20 13:15:03;;;;;;;;;;;;;;;;;;5091241;27;20007;-67
2022/03/20 13:17:30;;;;;;;;;;;;;;;;;;5091438;28;20003;-68
2022/03/20 13:19:56;;;;;;;;;;;;;;;;;;5091270;28;19916;-67
2022/03/20 13:22:22;;;;;;;;;;;;;;;;;;5089539;28;19912;-67
2022/03/20 13:24:49;;;;;;;;;;;;;;;;;;5091131;28;19996;-67
2022/03/20 13:27:50;;;;;;;;;;;;;;;;;;5112426;27;19927;-68
2022/03/20 13:33:35;;;;;;;;;;;;;;;;;;5111567;27;20302;-67
2022/03/20 13:36:01;;;;;;;;;;;;;;;;;;5111094;28;19916;-67
2022/03/20 13:38:27;;;;;;;;;;;;;;;;;;5111555;28;19912;-67
2022/03/20 13:40:53;;;;;;;;;;;;;;;;;;5110254;28;19908;-68
2022/03/20 13:43:20;;;;;;;;;;;;;;;;;;5109751;28;20403;-68
2022/03/20 13:45:46;;;;;;;;;;;;;;;;;;5111333;28;19915;-68
2022/03/20 13:48:13;;;;;;;;;;;;;;;;;;5110159;28;19908;-67
2022/03/20 13:51:50;;;;;;;;;;;;;;;;;;5112483;27;20272;-67
2022/03/20 13:54:16;;;;;;;;;;;;;;;;;;5110313;28;19918;-68
2022/03/20 13:56:42;;;;;;;;;;;;;;;;;;5111152;28;19908;-68
2022/03/20 13:59:30;;;;;;;;;;;;;;;;;;5111942;27;19938;-68
2022/03/20 14:04:37;;;;;;;;;;;;;;;;;;5091066;28;19916;-67
2022/03/20 14:08:51;;;;;;;;;;;;;;;;;;5111760;27;19916;-67
2022/03/20 14:13:18;;;;;;;;;;;;;;;;;;5091993;27;19923;-67
2022/03/20 14:17:23;;;;;;;;;;;;;;;;;;5070997;28;19917;-67
2022/03/20 14:22:40;;;;;;;;;;;;;;;;;;5091819;28;19913;-68
2022/03/20 14:25:06;;;;;;;;;;;;;;;;;;5090926;28;19912;-67
2022/03/20 14:27:36;;;;;;;;;;;;;;;;;;5091511;28;19916;-67
2022/03/20 14:41:55;;;;;;;;;;;;;;;;;;5111539;28;19919;-67
2022/03/20 14:44:21;;;;;;;;;;;;;;;;;;5110258;28;19908;-67
2022/03/20 14:46:47;;;;;;;;;;;;;;;;;;5111239;28;19908;-67
2022/03/20 14:49:36;;;;;;;;;;;;;;;;;;5112185;27;20383;-67
2022/03/20 14:52:02;;;;;;;;;;;;;;;;;;5111623;28;19991;-67
2022/03/20 14:54:28;;;;;;;;;;;;;;;;;;5109839;28;20008;-66
2022/03/20 14:56:57;;;;;;;;;;;;;;;;;;5110215;28;19947;-67
2022/03/20 14:59:24;;;;;;;;;;;;;;;;;;5111059;28;19957;-67
2022/03/20 15:01:51;;;;;;;;;;;;;;;;;;5111476;28;20376;-67
2022/03/20 15:04:17;;;;;;;;;;;;;;;;;;5111383;28;19912;-67
2022/03/20 15:06:43;;;;;;;;;;;;;;;;;;5111206;28;19990;-67
2022/03/20 15:11:54;;;;;;;;;;;;;;;;;;5111387;28;19961;-67
2022/03/20 15:16:02;;;;;;;;;;;;;;;;;;5091357;27;19923;-67
2022/03/20 15:18:28;;;;;;;;;;;;;;;;;;5090056;28;19995;-66
2022/03/20 15:23:06;;;;;;;;;;;;;;;;;;5091753;27;20300;-67
2022/03/20 15:25:32;;;;;;;;;;;;;;;;;;5091470;28;19912;-68
2022/03/20 15:29:15;;;;;;;;;;;;;;;;;;5091084;27;19916;-68
2022/03/20 15:31:44;;;;;;;;;;;;;;;;;;5090045;28;20456;-68
2022/03/20 15:34:12;;;;;;;;;;;;;;;;;;5091481;28;20404;-68
2022/03/20 15:37:46;;;;;;;;;;;;;;;;;;5091258;27;19912;-67
2022/03/20 15:40:11;;;;;;;;;;;;;;;;;;5091295;28;19920;-67
2022/03/20 15:42:40;;;;;;;;;;;;;;;;;;5089676;28;19908;-67
2022/03/20 15:46:08;;;;;;;;;;;;;;;;;;5112465;27;20365;-67
2022/03/20 15:48:34;;;;;;;;;;;;;;;;;;5111311;28;20010;-66
2022/03/20 15:51:00;;;;;;;;;;;;;;;;;;5111474;28;19915;-67
2022/03/20 15:53:51;;;;;;;;;;;;;;;;;;5111809;27;19916;-67
2022/03/20 15:56:17;;;;;;;;;;;;;;;;;;5111191;28;20003;-67
2022/03/20 15:58:43;;;;;;;;;;;;;;;;;;5111634;28;20018;-67
2022/03/20 16:01:09;;;;;;;;;;;;;;;;;;5111521;28;19915;-67
2022/03/20 16:03:35;;;;;;;;;;;;;;;;;;5111405;28;20376;-67
2022/03/20 16:07:48;;;;;;;;;;;;;;;;;;5112093;27;19916;-66
2022/03/20 16:11:35;;;;;;;;;;;;;;;;;;5111447;27;19916;-67
2022/03/20 16:14:16;;;;;;;;;;;;;;;;;;5112106;27;19922;-67
2022/03/20 16:17:59;;;;;;;;;;;;;;;;;;5090962;27;19917;-66
2022/03/20 16:20:25;;;;;;;;;;;;;;;;;;5091412;28;20443;-68
2022/03/20 16:28:58;;;;;;;;;;;;;;;;;;5112129;27;19922;-67
2022/03/20 16:31:24;;;;;;;;;;;;;;;;;;5111226;28;19912;-66
2022/03/20 16:33:50;;;;;;;;;;;;;;;;;;5112196;28;19961;-68
2022/03/20 16:36:16;;;;;;;;;;;;;;;;;;5111665;28;19912;-68
2022/03/20 16:40:25;;;;;;;;;;;;;;;;;;5112443;27;19922;-68
2022/03/20 16:42:52;;;;;;;;;;;;;;;;;;5110315;28;19995;-68
2022/03/20 16:46:16;;;;;;;;;;;;;;;;;;5111405;27;19922;-67
2022/03/20 16:48:42;;;;;;;;;;;;;;;;;;5110540;28;19919;-68
2022/03/20 16:51:08;;;;;;;;;;;;;;;;;;5111639;28;19986;-68
2022/03/20 16:53:35;;;;;;;;;;;;;;;;;;5111096;28;19915;-68
2022/03/20 16:56:02;;;;;;;;;;;;;;;;;;5111414;28;19953;-68
2022/03/20 16:58:28;;;;;;;;;;;;;;;;;;5111248;28;19908;-68
2022/03/20 17:00:54;;;;;;;;;;;;;;;;;;5109619;28;20007;-68
2022/03/20 17:03:20;;;;;;;;;;;;;;;;;;5111197;28;19908;-68
2022/03/20 17:05:46;;;;;;;;;;;;;;;;;;5109949;28;19966;-68
2022/03/20 17:08:12;;;;;;;;;;;;;;;;;;5109500;28;19939;-67
2022/03/20 17:10:40;;;;;;;;;;;;;;;;;;5111467;28;19908;-68
2022/03/20 17:13:05;;;;;;;;;;;;;;;;;;5110742;28;20284;-68
2022/03/20 17:15:31;;;;;;;;;;;;;;;;;;5111136;28;19908;-68
2022/03/20 17:17:57;;;;;;;;;;;;;;;;;;5111288;28;19908;-70
2022/03/20 17:20:24;;;;;;;;;;;;;;;;;;5109151;28;19908;-68
2022/03/20 17:22:52;;;;;;;;;;;;;;;;;;5111108;28;19908;-67
2022/03/20 17:25:18;;;;;;;;;;;;;;;;;;5110921;28;20021;-68
2022/03/20 17:27:44;;;;;;;;;;;;;;;;;;5109090;28;19908;-69
2022/03/20 17:30:10;;;;;;;;;;;;;;;;;;5110751;28;19915;-67
2022/03/20 17:32:38;;;;;;;;;;;;;;;;;;5110830;28;20012;-67
2022/03/20 17:35:04;;;;;;;;;;;;;;;;;;5108993;28;19998;-67
2022/03/20 17:37:30;;;;;;;;;;;;;;;;;;5110987;28;19912;-67
2022/03/20 17:39:56;;;;;;;;;;;;;;;;;;5110595;28;19908;-67
2022/03/20 17:42:22;;;;;;;;;;;;;;;;;;5108878;28;19914;-67
2022/03/20 17:44:48;;;;;;;;;;;;;;;;;;5108902;28;19920;-67
2022/03/20 17:47:14;;;;;;;;;;;;;;;;;;5109201;28;20015;-67
2022/03/20 17:49:40;;;;;;;;;;;;;;;;;;5110089;28;19998;-68
2022/03/20 17:52:06;;;;;;;;;;;;;;;;;;5110422;28;19951;-69
2022/03/20 17:54:32;;;;;;;;;;;;;;;;;;5110616;28;20372;-68
2022/03/20 17:57:00;;;;;;;;;;;;;;;;;;5099896;28;19908;-69
2022/03/20 17:59:38;;;;;;;;;;;;;;;;;;5095273;28;19908;-69
2022/03/20 18:07:51;;;;;;;;;;;;;;;;;;5096642;28;19962;-67
2022/03/20 18:10:17;;;;;;;;;;;;;;;;;;5095188;28;20340;-67
2022/03/20 18:12:43;;;;;;;;;;;;;;;;;;5096368;28;19944;-67
2022/03/20 18:15:09;;;;;;;;;;;;;;;;;;5096388;28;19934;-68
2022/03/20 18:17:35;;;;;;;;;;;;;;;;;;5095877;28;20340;-68
2022/03/20 18:20:02;;;;;;;;;;;;;;;;;;5096575;28;19908;-67
2022/03/20 18:22:27;;;;;;;;;;;;;;;;;;5096575;28;19915;-69
2022/03/20 18:24:54;;;;;;;;;;;;;;;;;;5094262;28;20427;-67
2022/03/20 18:27:19;;;;;;;;;;;;;;;;;;5096149;28;19908;-67
2022/03/20 18:29:45;;;;;;;;;;;;;;;;;;5096118;28;19912;-67
2022/03/20 18:32:11;;;;;;;;;;;;;;;;;;5094377;28;20416;-67
2022/03/20 18:34:37;;;;;;;;;;;;;;;;;;5094611;28;19915;-69